Time;durP1;ratioP1;P1;durP2;ratioP2;P2;SDS_P1;SDS_P2;PMS_P1;PMS_P2;Temp;Humidity;BMP_temperature;BMP_pressure;BME280_temperature;BME280_humidity;BME280_pressure;Samples;Min_cycle;Max_cycle;Signal;HPM_P1;HPM_P2
2023/12/24 00:01:36;;;;;;;;;;;;;;;3.28;76.10;98277.94;4406212;32;34141;-88
2023/12/24 00:04:04;;;;;;;;;;;;;;;3.31;75.99;98283.16;4423845;32;35176;-87
2023/12/24 00:06:31;;;;;;;;;;;;;;;3.33;75.42;98291.75;4409620;32;34156;-88
2023/12/24 00:08:58;;;;;;;;;;;;;;;3.62;74.66;98289.09;4413806;32;33441;-86
2023/12/24 00:11:26;;;;;;;;;;;;;;;2.88;77.25;98296.47;4417790;32;33924;-89
2023/12/24 00:13:53;;;;;;;;;;;;;;;3.53;75.07;98287.16;4408849;32;33629;-88
2023/12/24 00:16:20;;;;;;;;;;;;;;;3.41;74.91;98291.97;4423367;32;34886;-87
2023/12/24 00:18:48;;;;;;;;;;;;;;;3.61;74.70;98292.47;4419009;32;32866;-89
2023/12/24 00:21:15;;;;;;;;;;;;;;;3.93;73.35;98300.97;4409512;32;33784;-87
2023/12/24 00:23:42;;;;;;;;;;;;;;;4.28;71.64;98301.87;4421064;32;34840;-88
2023/12/24 00:26:10;;;;;;;;;;;;;;;4.10;72.24;98307.41;4420627;32;34057;-88
2023/12/24 00:28:37;;;;;;;;;;;;;;;3.95;72.97;98298.47;4421061;32;33158;-88
2023/12/24 00:31:05;;;;;;;;;;;;;;;3.93;72.98;98306.09;4420123;32;34489;-88
2023/12/24 00:33:35;;;;;;;;;;;;;;;4.06;72.14;98302.16;4411273;32;34620;-89
2023/12/24 00:36:02;;;;;;;;;;;;;;;3.36;74.40;98307.19;4421349;32;34724;-88
2023/12/24 00:38:30;;;;;;;;;;;;;;;3.17;75.64;98303.25;4434044;32;33440;-89
2023/12/24 00:41:00;;;;;;;;;;;;;;;3.65;74.60;98314.81;4411528;32;32802;-88
2023/12/24 00:43:27;;;;;;;;;;;;;;;3.71;74.25;98320.06;4418037;32;35145;-88
2023/12/24 00:45:54;;;;;;;;;;;;;;;4.13;72.54;98312.62;4429061;32;34165;-89
2023/12/24 00:48:22;;;;;;;;;;;;;;;3.96;73.41;98311.31;4421359;32;32411;-88
2023/12/24 00:50:49;;;;;;;;;;;;;;;4.07;72.59;98319.28;4421056;32;34205;-89
2023/12/24 00:53:17;;;;;;;;;;;;;;;4.03;72.94;98330.31;4408094;32;33611;-87
2023/12/24 00:55:44;;;;;;;;;;;;;;;4.22;71.96;98323.94;4423040;32;33294;-90
2023/12/24 00:58:12;;;;;;;;;;;;;;;4.01;72.65;98334.50;4409024;32;33381;-88
2023/12/24 01:00:40;;;;;;;;;;;;;;;4.28;72.10;98339.44;4413863;32;33941;-88
2023/12/24 01:03:07;;;;;;;;;;;;;;;4.08;72.43;98346.66;4428894;32;34231;-88
2023/12/24 01:05:35;;;;;;;;;;;;;;;4.26;72.18;98352.25;4404962;32;33246;-88
2023/12/24 01:08:02;;;;;;;;;;;;;;;4.38;71.44;98357.69;4408789;32;32513;-88
2023/12/24 01:10:30;;;;;;;;;;;;;;;4.35;71.47;98357.59;4410852;32;33576;-88
2023/12/24 01:12:57;;;;;;;;;;;;;;;3.89;73.06;98353.03;4414418;32;35272;-88
2023/12/24 01:15:24;;;;;;;;;;;;;;;3.42;74.56;98350.94;4406988;32;33422;-88
2023/12/24 01:17:52;;;;;;;;;;;;;;;4.09;72.80;98340.69;4405690;32;32863;-89
2023/12/24 01:20:19;;;;;;;;;;;;;;;4.42;71.87;98347.50;4407624;32;33558;-89
2023/12/24 01:22:47;;;;;;;;;;;;;;;4.25;71.57;98335.12;4408212;32;33100;-88
2023/12/24 01:25:14;;;;;;;;;;;;;;;4.17;72.10;98341.78;4420448;32;34191;-90
2023/12/24 01:27:41;;;;;;;;;;;;;;;4.39;71.35;98343.12;4421393;32;32753;-88
2023/12/24 01:30:10;;;;;;;;;;;;;;;4.52;71.02;98347.75;4429627;32;34024;-89
2023/12/24 01:32:37;;;;;;;;;;;;;;;4.36;71.43;98343.97;4421961;32;34507;-86
2023/12/24 01:35:05;;;;;;;;;;;;;;;3.93;72.78;98351.41;4409847;32;32474;-87
2023/12/24 01:37:33;;;;;;;;;;;;;;;4.41;71.28;98353.47;4424879;32;33266;-88
2023/12/24 01:40:00;;;;;;;;;;;;;;;4.22;71.85;98345.31;4408467;32;34945;-88
2023/12/24 01:42:28;;;;;;;;;;;;;;;4.26;72.05;98357.38;4423604;32;35157;-88
2023/12/24 01:44:55;;;;;;;;;;;;;;;4.53;70.93;98351.19;4410216;32;33961;-88
2023/12/24 01:47:22;;;;;;;;;;;;;;;3.88;72.76;98359.84;4410419;32;32173;-88
2023/12/24 01:49:50;;;;;;;;;;;;;;;4.43;71.29;98351.78;4414283;32;33898;-88
2023/12/24 01:52:17;;;;;;;;;;;;;;;4.34;71.67;98358.44;4402526;32;34341;-88
2023/12/24 01:54:45;;;;;;;;;;;;;;;4.02;72.62;98351.66;4413052;32;33603;-88
2023/12/24 01:57:12;;;;;;;;;;;;;;;4.09;72.57;98349.28;4417110;32;32997;-88
2023/12/24 01:59:39;;;;;;;;;;;;;;;4.16;72.46;98340.03;4430814;32;33780;-88
2023/12/24 02:02:07;;;;;;;;;;;;;;;4.16;73.03;98342.59;4422664;32;34202;-86
2023/12/24 02:04:35;;;;;;;;;;;;;;;3.80;73.87;98345.97;4422004;32;33792;-88
2023/12/24 02:07:02;;;;;;;;;;;;;;;3.44;75.66;98345.84;4410168;32;32783;-88
2023/12/24 02:09:30;;;;;;;;;;;;;;;3.98;73.39;98343.00;4414887;32;34031;-88
2023/12/24 02:11:57;;;;;;;;;;;;;;;4.10;73.36;98335.62;4396640;32;35027;-89
2023/12/24 02:14:24;;;;;;;;;;;;;;;4.05;73.40;98346.59;4416222;32;34653;-89
2023/12/24 02:16:52;;;;;;;;;;;;;;;4.26;72.77;98346.25;4421673;32;34003;-88
2023/12/24 02:19:19;;;;;;;;;;;;;;;4.08;73.00;98346.66;4405081;32;32964;-88
2023/12/24 02:21:46;;;;;;;;;;;;;;;4.30;72.36;98351.50;4419408;32;33585;-88
2023/12/24 02:24:14;;;;;;;;;;;;;;;4.49;71.73;98354.50;4427319;32;33480;-88
2023/12/24 02:27:04;;;;;;;;;;;;;;;4.61;71.40;98360.78;4421458;32;33838;-87
2023/12/24 02:29:33;;;;;;;;;;;;;;;4.46;71.52;98360.44;4396186;32;33324;-89
2023/12/24 02:32:03;;;;;;;;;;;;;;;4.50;71.23;98364.81;4398528;32;33427;-88
2023/12/24 02:34:33;;;;;;;;;;;;;;;4.71;70.79;98356.75;4420081;32;33570;-89
2023/12/24 02:37:00;;;;;;;;;;;;;;;4.63;71.02;98358.28;4423694;32;33432;-88
2023/12/24 02:39:28;;;;;;;;;;;;;;;4.72;70.70;98368.75;4418918;32;34080;-89
2023/12/24 02:41:55;;;;;;;;;;;;;;;4.53;71.00;98362.31;4411728;32;33107;-89
2023/12/24 02:44:22;;;;;;;;;;;;;;;4.67;70.67;98362.66;4436526;32;34827;-90
2023/12/24 02:46:49;;;;;;;;;;;;;;;4.53;71.05;98351.19;4420913;32;34026;-87
2023/12/24 02:49:18;;;;;;;;;;;;;;;4.47;71.29;98354.47;4393703;32;32667;-89
2023/12/24 02:51:45;;;;;;;;;;;;;;;4.50;71.40;98371.63;4430075;32;34025;-87
2023/12/24 02:54:13;;;;;;;;;;;;;;;4.17;72.22;98362.31;4421214;32;33452;-88
2023/12/24 02:56:41;;;;;;;;;;;;;;;4.09;72.31;98368.91;4402585;32;31817;-89
2023/12/24 02:59:08;;;;;;;;;;;;;;;4.08;73.38;98377.44;4405565;32;33271;-88
2023/12/24 03:01:36;;;;;;;;;;;;;;;4.28;72.56;98352.28;4427206;32;34305;-89
2023/12/24 03:04:04;;;;;;;;;;;;;;;4.47;71.87;98363.84;4410112;32;34157;-89
2023/12/24 03:06:32;;;;;;;;;;;;;;;4.24;73.05;98356.47;4410580;32;33838;-88
2023/12/24 03:08:59;;;;;;;;;;;;;;;4.49;71.89;98351.94;4412252;32;33072;-89
2023/12/24 03:11:27;;;;;;;;;;;;;;;4.49;72.06;98354.50;4417491;32;35017;-89
2023/12/24 03:13:54;;;;;;;;;;;;;;;4.71;71.08;98351.62;4408419;32;34795;-89
2023/12/24 03:16:21;;;;;;;;;;;;;;;4.80;70.73;98346.66;4407368;32;32467;-89
2023/12/24 03:18:49;;;;;;;;;;;;;;;4.81;70.69;98353.56;4407188;32;33196;-89
2023/12/24 03:21:16;;;;;;;;;;;;;;;4.44;71.21;98345.84;4420980;32;35170;-90
2023/12/24 03:23:43;;;;;;;;;;;;;;;4.55;71.27;98364.94;4408902;32;34079;-89
2023/12/24 03:26:20;;;;;;;;;;;;;;;4.86;70.00;98340.81;4426917;32;32117;-88
2023/12/24 03:28:48;;;;;;;;;;;;;;;4.68;70.49;98351.53;4407213;32;34932;-89
2023/12/24 03:31:16;;;;;;;;;;;;;;;4.84;70.30;98361.31;4415690;32;33078;-89
2023/12/24 03:33:44;;;;;;;;;;;;;;;5.25;68.44;98348.50;4407403;32;33929;-89
2023/12/24 03:36:12;;;;;;;;;;;;;;;4.97;69.55;98349.63;4433749;32;33873;-88
2023/12/24 03:38:40;;;;;;;;;;;;;;;4.97;69.57;98347.06;4408462;32;33829;-88
2023/12/24 03:41:07;;;;;;;;;;;;;;;5.04;69.30;98348.94;4406920;32;32937;-88
2023/12/24 03:43:35;;;;;;;;;;;;;;;5.00;69.24;98343.66;4434179;32;34770;-88
2023/12/24 03:46:02;;;;;;;;;;;;;;;4.63;70.33;98364.28;4433567;32;34142;-89
2023/12/24 03:48:30;;;;;;;;;;;;;;;4.57;71.03;98347.84;4411719;32;34845;-89
2023/12/24 03:50:57;;;;;;;;;;;;;;;4.77;70.37;98356.91;4426569;32;35095;-90
2023/12/24 03:53:25;;;;;;;;;;;;;;;4.89;70.22;98348.59;4421798;32;33209;-89
2023/12/24 03:55:52;;;;;;;;;;;;;;;4.58;71.28;98349.56;4419121;32;32281;-88
2023/12/24 03:58:20;;;;;;;;;;;;;;;4.73;71.07;98360.19;4409448;32;33664;-89
2023/12/24 04:00:47;;;;;;;;;;;;;;;4.45;72.17;98361.25;4409120;32;33573;-90
2023/12/24 04:03:14;;;;;;;;;;;;;;;4.55;71.65;98355.53;4409363;32;33840;-86
2023/12/24 04:05:41;;;;;;;;;;;;;;;4.70;71.25;98354.13;4422540;32;33225;-89
2023/12/24 04:08:09;;;;;;;;;;;;;;;4.57;71.52;98356.41;4425565;32;34092;-87
2023/12/24 04:10:39;;;;;;;;;;;;;;;4.79;70.48;98347.50;4425313;32;34469;-89
2023/12/24 04:13:10;;;;;;;;;;;;;;;4.87;70.27;98345.97;4430299;32;34779;-89
2023/12/24 04:15:38;;;;;;;;;;;;;;;4.93;69.75;98344.41;4406422;32;32720;-88
2023/12/24 04:18:06;;;;;;;;;;;;;;;4.87;70.46;98347.69;4421472;32;33592;-90
2023/12/24 04:20:33;;;;;;;;;;;;;;;4.79;70.54;98339.81;4417850;32;33946;-89
2023/12/24 04:23:01;;;;;;;;;;;;;;;4.56;71.39;98341.00;4418166;32;34073;-89
2023/12/24 04:25:28;;;;;;;;;;;;;;;4.69;71.10;98347.25;4408667;32;34110;-89
2023/12/24 04:27:56;;;;;;;;;;;;;;;4.72;71.02;98348.19;4416408;32;34801;-89
2023/12/24 04:30:23;;;;;;;;;;;;;;;4.79;70.87;98336.38;4416609;32;34062;-88
2023/12/24 04:32:51;;;;;;;;;;;;;;;4.86;70.36;98333.97;4422254;32;33991;-89
2023/12/24 04:35:19;;;;;;;;;;;;;;;4.94;70.03;98338.41;4421600;32;32065;-89
2023/12/24 04:37:47;;;;;;;;;;;;;;;4.50;71.98;98335.69;4415669;32;34169;-89
2023/12/24 04:40:14;;;;;;;;;;;;;;;4.31;72.19;98335.25;4412665;32;35110;-90
2023/12/24 04:42:42;;;;;;;;;;;;;;;4.40;72.44;98334.63;4423152;32;34179;-88
2023/12/24 04:45:09;;;;;;;;;;;;;;;4.67;71.56;98334.41;4435802;32;33305;-91
2023/12/24 04:47:37;;;;;;;;;;;;;;;4.57;71.38;98329.88;4436944;32;34804;-89
2023/12/24 04:50:05;;;;;;;;;;;;;;;4.44;72.44;98321.03;4436369;32;34360;-89
2023/12/24 04:52:35;;;;;;;;;;;;;;;4.53;72.20;98320.38;4413229;32;34901;-89
2023/12/24 04:55:05;;;;;;;;;;;;;;;4.72;71.96;98317.37;4422504;32;33900;-87
2023/12/24 04:57:33;;;;;;;;;;;;;;;4.41;72.50;98326.09;4418950;32;33095;-90
2023/12/24 05:00:01;;;;;;;;;;;;;;;4.67;71.85;98326.69;4424233;32;33891;-90
2023/12/24 05:02:28;;;;;;;;;;;;;;;4.51;72.30;98324.59;4399814;32;33253;-89
2023/12/24 05:04:56;;;;;;;;;;;;;;;4.78;71.34;98324.37;4428754;32;33494;-89
2023/12/24 05:07:23;;;;;;;;;;;;;;;4.74;71.74;98323.44;4420800;32;32881;-90
2023/12/24 05:09:51;;;;;;;;;;;;;;;4.74;71.54;98326.00;4422951;32;33869;-89
2023/12/24 05:12:18;;;;;;;;;;;;;;;4.58;71.17;98326.47;4430334;32;33792;-89
2023/12/24 05:14:45;;;;;;;;;;;;;;;4.99;70.37;98342.81;4423564;32;33099;-90
2023/12/24 05:17:13;;;;;;;;;;;;;;;4.32;71.89;98339.59;4435164;32;34879;-90
2023/12/24 05:19:40;;;;;;;;;;;;;;;4.91;70.74;98333.22;4417304;32;33226;-88
2023/12/24 05:22:08;;;;;;;;;;;;;;;4.90;71.00;98332.34;4436919;32;33949;-91
2023/12/24 05:24:35;;;;;;;;;;;;;;;4.68;71.69;98333.56;4436117;32;33129;-89
2023/12/24 05:27:03;;;;;;;;;;;;;;;4.58;72.81;98340.22;4415439;32;33211;-89
2023/12/24 05:29:30;;;;;;;;;;;;;;;4.47;73.57;98344.22;4420583;32;35084;-90
2023/12/24 05:31:57;;;;;;;;;;;;;;;4.48;74.77;98339.94;4433157;32;33840;-89
2023/12/24 05:34:25;;;;;;;;;;;;;;;4.61;75.59;98355.66;4408184;32;33478;-89
2023/12/24 05:36:52;;;;;;;;;;;;;;;4.73;77.01;98349.94;4422137;32;35207;-90
2023/12/24 05:39:20;;;;;;;;;;;;;;;4.85;76.57;98349.38;4421535;32;34203;-91
2023/12/24 05:41:47;;;;;;;;;;;;;;;4.94;76.41;98348.69;4407857;32;33814;-88
2023/12/24 05:44:15;;;;;;;;;;;;;;;4.71;76.56;98346.47;4418047;32;34005;-90
2023/12/24 05:46:42;;;;;;;;;;;;;;;4.51;78.92;98350.25;4406514;32;34385;-90
2023/12/24 05:49:09;;;;;;;;;;;;;;;4.81;79.21;98348.44;4408042;32;34419;-89
2023/12/24 05:51:37;;;;;;;;;;;;;;;4.92;78.22;98347.78;4407911;32;33717;-89
2023/12/24 05:54:04;;;;;;;;;;;;;;;4.56;80.25;98347.00;4421866;32;33181;-89
2023/12/24 05:56:31;;;;;;;;;;;;;;;4.93;79.09;98352.09;4407593;32;33602;-90
2023/12/24 05:58:59;;;;;;;;;;;;;;;4.75;81.08;98349.97;4395107;32;32808;-90
2023/12/24 06:01:26;;;;;;;;;;;;;;;5.13;78.32;98350.81;4411889;32;33657;-90
2023/12/24 06:03:53;;;;;;;;;;;;;;;4.50;83.81;98346.84;4433698;32;33788;-89
2023/12/24 06:06:21;;;;;;;;;;;;;;;5.23;80.78;98357.03;4405741;32;34823;-90
2023/12/24 06:08:48;;;;;;;;;;;;;;;5.31;79.95;98361.47;4404459;32;34773;-89
2023/12/24 06:11:16;;;;;;;;;;;;;;;4.74;81.08;98369.66;4407607;32;32594;-90
2023/12/24 06:13:44;;;;;;;;;;;;;;;5.29;79.18;98365.72;4424591;32;33208;-89
2023/12/24 06:16:12;;;;;;;;;;;;;;;5.22;77.52;98363.84;4412108;32;34636;-90
2023/12/24 06:18:40;;;;;;;;;;;;;;;5.32;79.08;98364.91;4423065;32;34520;-90
2023/12/24 06:21:08;;;;;;;;;;;;;;;5.50;78.94;98367.88;4422833;32;34108;-88
2023/12/24 06:23:35;;;;;;;;;;;;;;;5.28;79.25;98368.25;4412067;32;33398;-90
2023/12/24 06:26:03;;;;;;;;;;;;;;;5.47;78.43;98365.22;4407672;32;34162;-89
2023/12/24 06:28:31;;;;;;;;;;;;;;;5.08;79.71;98375.56;4406988;32;34373;-89
2023/12/24 06:30:59;;;;;;;;;;;;;;;5.50;79.77;98373.00;4393366;32;33113;-90
2023/12/24 06:33:27;;;;;;;;;;;;;;;5.47;79.56;98372.94;4420184;32;33234;-91
2023/12/24 06:35:54;;;;;;;;;;;;;;;5.77;78.96;98388.09;4418442;32;34211;-90
2023/12/24 06:38:22;;;;;;;;;;;;;;;5.53;79.42;98382.47;4407517;32;33335;-90
2023/12/24 06:40:49;;;;;;;;;;;;;;;5.39;79.68;98384.78;4404832;32;33356;-90
2023/12/24 06:43:17;;;;;;;;;;;;;;;5.54;77.09;98389.34;4410732;32;32461;-91
2023/12/24 06:45:44;;;;;;;;;;;;;;;5.67;76.84;98387.88;4429301;32;33514;-91
2023/12/24 06:48:12;;;;;;;;;;;;;;;5.82;76.03;98393.31;4417977;32;33366;-91
2023/12/24 06:50:39;;;;;;;;;;;;;;;5.62;77.40;98398.09;4400044;32;34110;-90
2023/12/24 06:53:06;;;;;;;;;;;;;;;5.74;77.54;98400.03;4407771;32;32983;-90
2023/12/24 06:55:34;;;;;;;;;;;;;;;5.51;76.26;98404.72;4408225;32;33789;-90
2023/12/24 06:58:03;;;;;;;;;;;;;;;5.71;77.23;98403.41;4433627;32;34061;-91
2023/12/24 07:00:30;;;;;;;;;;;;;;;5.50;80.91;98410.69;4409965;32;34391;-91
2023/12/24 07:02:58;;;;;;;;;;;;;;;5.58;76.90;98410.00;4412846;32;32729;-89
2023/12/24 07:05:25;;;;;;;;;;;;;;;5.33;79.49;98408.63;4407467;32;33545;-91
2023/12/24 07:07:52;;;;;;;;;;;;;;;5.86;78.87;98398.56;4408796;32;32937;-90
2023/12/24 07:10:20;;;;;;;;;;;;;;;5.65;78.39;98398.16;4420391;32;33279;-90
2023/12/24 07:12:47;;;;;;;;;;;;;;;5.32;77.86;98409.47;4392622;32;32038;-89
2023/12/24 07:15:15;;;;;;;;;;;;;;;5.82;77.72;98407.06;4421590;32;34053;-90
2023/12/24 07:17:42;;;;;;;;;;;;;;;6.03;77.92;98410.91;4406575;32;33584;-90
2023/12/24 07:20:11;;;;;;;;;;;;;;;5.92;76.95;98413.28;4406898;32;32905;-90
2023/12/24 07:22:38;;;;;;;;;;;;;;;5.99;76.52;98422.00;4401024;32;32779;-92
2023/12/24 07:25:07;;;;;;;;;;;;;;;6.12;76.31;98413.66;4410338;32;33010;-91
2023/12/24 07:27:34;;;;;;;;;;;;;;;6.26;75.53;98430.22;4414210;32;33406;-90
2023/12/24 07:30:01;;;;;;;;;;;;;;;5.73;76.76;98435.19;4392469;32;33578;-90
2023/12/24 07:32:29;;;;;;;;;;;;;;;5.56;75.87;98441.66;4401423;32;31904;-89
2023/12/24 07:34:57;;;;;;;;;;;;;;;5.62;78.64;98440.09;4411760;32;34622;-91
2023/12/24 07:37:24;;;;;;;;;;;;;;;5.89;78.90;98433.78;4382123;32;33533;-90
2023/12/24 07:39:52;;;;;;;;;;;;;;;6.15;75.85;98444.59;4401787;32;32771;-91
2023/12/24 07:42:19;;;;;;;;;;;;;;;6.22;75.46;98438.72;4408565;32;34126;-91
2023/12/24 07:44:47;;;;;;;;;;;;;;;6.29;73.59;98447.44;4420362;32;35008;-92
2023/12/24 07:47:14;;;;;;;;;;;;;;;6.31;72.23;98454.31;4398553;32;33883;-95
2023/12/24 07:50:02;;;;;;;;;;;;;;;6.14;73.93;98454.84;4384316;32;33199;-94
2023/12/24 07:52:50;;;;;;;;;;;;;;;6.01;72.99;98458.91;4409686;32;33299;-89
2023/12/24 07:55:17;;;;;;;;;;;;;;;5.97;76.67;98451.97;4404582;32;34285;-89
2023/12/24 07:57:44;;;;;;;;;;;;;;;5.99;74.99;98460.59;4417200;32;33877;-91
2023/12/24 08:00:12;;;;;;;;;;;;;;;6.07;75.11;98464.16;4383900;32;32877;-91
2023/12/24 08:02:41;;;;;;;;;;;;;;;6.05;74.33;98465.84;4393326;32;33089;-91
2023/12/24 08:05:09;;;;;;;;;;;;;;;6.08;73.24;98464.19;4405620;32;34461;-91
2023/12/24 08:07:37;;;;;;;;;;;;;;;5.51;77.49;98476.69;4388606;32;33681;-90
2023/12/24 08:10:05;;;;;;;;;;;;;;;6.01;75.29;98476.91;4391314;32;34122;-90
2023/12/24 08:12:33;;;;;;;;;;;;;;;6.16;73.50;98474.63;4391742;32;31950;-92
2023/12/24 08:15:00;;;;;;;;;;;;;;;5.85;73.86;98476.56;4391974;32;33134;-90
2023/12/24 08:17:27;;;;;;;;;;;;;;;6.33;72.96;98477.53;4406648;32;33582;-90
2023/12/24 08:19:55;;;;;;;;;;;;;;;6.17;72.89;98476.34;4390867;32;34004;-89
2023/12/24 08:22:25;;;;;;;;;;;;;;;6.03;73.87;98482.97;4404010;32;34198;-91
2023/12/24 08:24:52;;;;;;;;;;;;;;;6.11;73.37;98476.25;4366853;32;33255;-90
2023/12/24 08:27:21;;;;;;;;;;;;;;;6.16;72.24;98479.78;4392342;32;33746;-90
2023/12/24 08:29:48;;;;;;;;;;;;;;;6.01;73.17;98489.78;4389615;32;34696;-91
2023/12/24 08:32:15;;;;;;;;;;;;;;;5.75;76.53;98492.63;4381130;32;32149;-90
2023/12/24 08:34:43;;;;;;;;;;;;;;;5.69;75.89;98496.81;4403487;32;33685;-91
2023/12/24 08:37:10;;;;;;;;;;;;;;;5.96;75.52;98496.53;4405548;32;34236;-90
2023/12/24 08:39:38;;;;;;;;;;;;;;;5.80;76.90;98509.06;4404930;32;32754;-93
2023/12/24 08:42:05;;;;;;;;;;;;;;;5.89;75.08;98505.78;4407035;32;32174;-91
2023/12/24 08:44:32;;;;;;;;;;;;;;;6.30;74.42;98498.06;4389965;32;33991;-89
2023/12/24 08:47:00;;;;;;;;;;;;;;;6.40;72.97;98506.81;4405081;32;33984;-90
2023/12/24 08:49:27;;;;;;;;;;;;;;;6.25;73.48;98521.16;4419808;32;33771;-92
2023/12/24 08:51:55;;;;;;;;;;;;;;;6.30;72.67;98522.09;4407353;32;33090;-90
2023/12/24 08:54:23;;;;;;;;;;;;;;;6.45;72.15;98523.22;4393910;32;33141;-89
2023/12/24 08:56:51;;;;;;;;;;;;;;;6.37;71.90;98532.53;4414626;32;34291;-90
2023/12/24 08:59:18;;;;;;;;;;;;;;;6.47;71.41;98537.84;4400984;32;32958;-91
2023/12/24 09:01:46;;;;;;;;;;;;;;;6.18;71.91;98528.72;4396431;32;32306;-87
2023/12/24 09:04:13;;;;;;;;;;;;;;;6.25;71.60;98520.25;4400606;32;33343;-92
2023/12/24 09:06:40;;;;;;;;;;;;;;;6.43;70.87;98522.31;4424971;32;33931;-90
2023/12/24 09:09:08;;;;;;;;;;;;;;;6.17;74.60;98532.09;4407656;32;34428;-86
2023/12/24 09:11:36;;;;;;;;;;;;;;;6.19;73.88;98528.75;4409883;32;33053;-90
2023/12/24 09:14:04;;;;;;;;;;;;;;;6.49;73.03;98525.03;4414188;32;34112;-85
2023/12/24 09:16:36;;;;;;;;;;;;;;;6.73;72.30;98528.03;4422067;32;34792;-90
2023/12/24 09:19:23;;;;;;;;;;;;;;;6.88;72.02;98522.28;4415049;32;34233;-90
2023/12/24 09:21:51;;;;;;;;;;;;;;;6.98;71.47;98515.59;4411787;32;33368;-93
2023/12/24 09:24:18;;;;;;;;;;;;;;;7.25;71.02;98523.75;4406352;32;34175;-90
2023/12/24 09:26:45;;;;;;;;;;;;;;;7.24;71.00;98523.75;4396128;32;33976;-90
2023/12/24 09:29:13;;;;;;;;;;;;;;;7.39;70.47;98533.44;4413350;32;32988;-93
2023/12/24 09:31:40;;;;;;;;;;;;;;;7.20;70.26;98527.97;4403114;32;33313;-93
2023/12/24 09:34:08;;;;;;;;;;;;;;;7.32;70.44;98528.16;4400827;32;32766;-94
2023/12/24 09:36:35;;;;;;;;;;;;;;;7.00;72.49;98529.34;4424086;32;35391;-92
2023/12/24 09:39:03;;;;;;;;;;;;;;;7.19;72.51;98526.22;4423543;32;32843;-95
2023/12/24 09:41:50;;;;;;;;;;;;;;;6.94;73.81;98535.28;4412982;32;32595;-89
2023/12/24 09:44:17;;;;;;;;;;;;;;;7.14;73.86;98530.44;4410224;32;34581;-96
2023/12/24 09:46:46;;;;;;;;;;;;;;;7.19;73.47;98533.94;4412258;32;34525;-96
2023/12/24 09:49:33;;;;;;;;;;;;;;;7.24;72.82;98534.91;4422340;32;33324;-95
2023/12/24 09:52:21;;;;;;;;;;;;;;;7.23;72.33;98537.44;4416196;32;32963;-96
2023/12/24 09:54:48;;;;;;;;;;;;;;;7.28;71.63;98536.69;4423679;32;34532;-94
2023/12/24 09:57:16;;;;;;;;;;;;;;;7.16;72.79;98540.75;4414538;32;34326;-96
2023/12/24 10:00:00;;;;;;;;;;;;;;;7.02;73.69;98548.28;4432784;32;34262;-91
2023/12/24 10:02:34;;;;;;;;;;;;;;;7.34;72.10;98543.63;4430388;32;32475;-95
2023/12/24 10:05:22;;;;;;;;;;;;;;;7.18;71.10;98539.97;4432099;32;33338;-94
2023/12/24 10:08:16;;;;;;;;;;;;;;;7.57;69.98;98538.81;4427679;32;34686;-94
2023/12/24 10:10:57;;;;;;;;;;;;;;;7.38;71.18;98540.25;4414170;32;34965;-94
2023/12/24 10:13:24;;;;;;;;;;;;;;;7.11;73.12;98540.69;4399422;32;33480;-93
2023/12/24 10:16:02;;;;;;;;;;;;;;;7.67;71.11;98540.69;4407870;32;33208;-92
2023/12/24 10:18:30;;;;;;;;;;;;;;;7.62;69.56;98523.44;4425868;32;34488;-92
2023/12/24 10:21:10;;;;;;;;;;;;;;;7.46;70.53;98514.59;4424167;32;34830;-89
2023/12/24 10:23:37;;;;;;;;;;;;;;;7.63;70.32;98518.28;4417467;32;33548;-96
2023/12/24 10:26:06;;;;;;;;;;;;;;;7.48;69.54;98523.22;4412439;32;32601;-90
2023/12/24 10:28:33;;;;;;;;;;;;;;;7.68;69.54;98521.78;4409043;32;34367;-90
2023/12/24 10:31:08;;;;;;;;;;;;;;;7.08;71.36;98520.03;4418249;32;33800;-95
2023/12/24 10:33:38;;;;;;;;;;;;;;;7.37;71.98;98524.78;4431465;32;32513;-93
2023/12/24 10:36:25;;;;;;;;;;;;;;;7.42;70.95;98524.00;4415446;32;33840;-90
2023/12/24 10:38:52;;;;;;;;;;;;;;;7.40;70.77;98522.25;4422206;32;33923;-95
2023/12/24 10:41:20;;;;;;;;;;;;;;;7.44;70.00;98532.63;4411519;32;33025;-93
2023/12/24 10:43:47;;;;;;;;;;;;;;;7.53;70.41;98532.75;4439576;32;33077;-92
2023/12/24 10:46:15;;;;;;;;;;;;;;;7.61;69.25;98527.69;4422623;32;32981;-91
2023/12/24 10:48:42;;;;;;;;;;;;;;;7.73;69.38;98525.31;4410240;32;33590;-93
2023/12/24 10:51:30;;;;;;;;;;;;;;;7.74;69.23;98536.50;4413174;32;33646;-91
2023/12/24 10:53:58;;;;;;;;;;;;;;;7.63;69.81;98526.03;4421828;32;32807;-92
2023/12/24 10:56:31;;;;;;;;;;;;;;;7.48;69.92;98528.38;4409638;32;33496;-90
2023/12/24 10:59:01;;;;;;;;;;;;;;;7.45;69.83;98528.34;4397418;32;33449;-92
2023/12/24 11:01:45;;;;;;;;;;;;;;;7.22;69.70;98510.81;4418105;32;33832;-93
2023/12/24 11:04:33;;;;;;;;;;;;;;;7.51;69.47;98515.53;4406962;32;33339;-95
2023/12/24 11:07:05;;;;;;;;;;;;;;;7.72;68.87;98504.63;4421389;32;33074;-94
2023/12/24 11:09:32;;;;;;;;;;;;;;;7.59;68.91;98506.19;4425291;32;33301;-91
2023/12/24 11:11:59;;;;;;;;;;;;;;;7.53;68.98;98495.78;4426234;32;33101;-91
2023/12/24 11:14:44;;;;;;;;;;;;;;;7.52;69.88;98499.22;4435868;32;33376;-93
2023/12/24 11:17:28;;;;;;;;;;;;;;;8.19;67.06;98487.19;4409730;32;33459;-94
2023/12/24 11:20:16;;;;;;;;;;;;;;;7.92;68.42;98494.59;4409475;32;33382;-94
2023/12/24 11:23:04;;;;;;;;;;;;;;;7.62;70.16;98497.66;4427028;32;33502;-96
2023/12/24 11:26:39;;;;;;;;;;;;;;;8.04;68.78;98487.84;4367687;32;20034;-93
2023/12/24 11:29:15;;;;;;;;;;;;;;;8.38;66.44;98480.53;4346335;32;33415;-95
2023/12/24 11:31:50;;;;;;;;;;;;;;;8.10;66.96;98478.44;4337931;33;34271;-94
2023/12/24 11:34:33;;;;;;;;;;;;;;;8.44;65.93;98480.56;4349832;32;32552;-95
2023/12/24 11:37:03;;;;;;;;;;;;;;;8.50;65.27;98482.38;4347072;33;31804;-92
2023/12/24 11:39:51;;;;;;;;;;;;;;;8.57;64.87;98468.66;4336541;32;32860;-95
2023/12/24 11:42:41;;;;;;;;;;;;;;;8.14;65.18;98464.72;4349535;32;33705;-95
2023/12/24 11:45:38;;;;;;;;;;;;;;;8.37;64.94;98465.88;4430751;27;19986;-96
2023/12/24 11:48:27;;;;;;;;;;;;;;;8.40;64.66;98465.03;4388096;32;32623;-93
2023/12/24 11:51:03;;;;;;;;;;;;;;;8.51;64.24;98464.28;4406175;32;34118;-94
2023/12/24 11:53:32;;;;;;;;;;;;;;;8.33;64.73;98471.81;4395024;32;34465;-94
2023/12/24 11:56:16;;;;;;;;;;;;;;;8.22;64.76;98469.13;4394334;32;33956;-94
2023/12/24 11:58:47;;;;;;;;;;;;;;;8.44;64.24;98469.37;4403231;32;32909;-96
2023/12/24 12:01:27;;;;;;;;;;;;;;;8.30;66.26;98461.47;4420947;32;35644;-95
2023/12/24 12:03:57;;;;;;;;;;;;;;;8.17;66.85;98465.62;4415162;32;33372;-92
2023/12/24 12:06:28;;;;;;;;;;;;;;;8.20;66.34;98460.50;4391245;32;32924;-94
2023/12/24 12:09:04;;;;;;;;;;;;;;;7.99;66.47;98460.25;4413360;32;33388;-92
2023/12/24 12:11:31;;;;;;;;;;;;;;;7.93;66.33;98455.88;4416315;32;33934;-91
2023/12/24 12:13:59;;;;;;;;;;;;;;;8.07;66.71;98443.16;4405691;32;34801;-93
2023/12/24 12:16:26;;;;;;;;;;;;;;;8.08;66.71;98431.97;4403879;32;33002;-92
2023/12/24 12:18:53;;;;;;;;;;;;;;;8.04;67.46;98419.88;4391404;32;33488;-91
2023/12/24 12:21:21;;;;;;;;;;;;;;;7.69;69.73;98429.78;4390401;32;34147;-94
2023/12/24 12:23:48;;;;;;;;;;;;;;;7.70;69.32;98419.50;4401873;32;33731;-92
2023/12/24 12:26:16;;;;;;;;;;;;;;;8.24;67.98;98431.28;4402967;32;33962;-91
2023/12/24 12:28:46;;;;;;;;;;;;;;;7.64;70.00;98434.88;4404474;32;32883;-93
2023/12/24 12:31:13;;;;;;;;;;;;;;;8.12;68.20;98443.19;4404783;32;34417;-92
2023/12/24 12:33:40;;;;;;;;;;;;;;;8.09;68.99;98458.66;4405813;32;34517;-94
2023/12/24 12:36:08;;;;;;;;;;;;;;;8.34;68.35;98462.37;4406394;32;34372;-93
2023/12/24 12:38:39;;;;;;;;;;;;;;;8.46;67.71;98472.84;4392010;32;32249;-93
2023/12/24 12:41:10;;;;;;;;;;;;;;;7.82;70.53;98474.69;4413131;32;34599;-93
2023/12/24 12:43:38;;;;;;;;;;;;;;;8.15;69.80;98469.91;4390821;32;34339;-92
2023/12/24 12:46:05;;;;;;;;;;;;;;;8.42;67.41;98465.94;4400543;32;33729;-91
2023/12/24 12:48:42;;;;;;;;;;;;;;;7.88;68.63;98464.41;4389477;32;34074;-94
2023/12/24 12:51:12;;;;;;;;;;;;;;;8.23;67.46;98460.53;4392453;32;33102;-92
2023/12/24 12:53:39;;;;;;;;;;;;;;;8.40;67.58;98449.53;4406082;32;34879;-92
2023/12/24 12:56:07;;;;;;;;;;;;;;;8.04;67.12;98443.12;4392276;32;33406;-90
2023/12/24 12:58:35;;;;;;;;;;;;;;;8.47;65.59;98435.81;4417626;32;33735;-90
2023/12/24 13:01:03;;;;;;;;;;;;;;;8.18;66.65;98431.22;4405689;32;33713;-91
2023/12/24 13:03:32;;;;;;;;;;;;;;;8.24;66.61;98426.09;4406626;32;33188;-95
2023/12/24 13:06:09;;;;;;;;;;;;;;;8.10;66.40;98432.84;4419431;32;34870;-96
2023/12/24 13:08:38;;;;;;;;;;;;;;;8.33;65.38;98442.53;4407230;32;32477;-96
2023/12/24 13:11:07;;;;;;;;;;;;;;;7.96;65.99;98449.91;4406244;32;33506;-96